Flight Track Log - Related Links

Times and Time Zones

All times are in EST time to prevent confusion due to time zone crossing. See the JBU56 flight status page for this flight to view local times or setup timezone preferences in your user account.

Time Position Orientation Groundspeed Altitude Reporting Facility
EST Latitude Longitude Course Direction KTS MPH feet Rate Location/Type
Mon 10:14:02 38.9667 -77.5167 90° East 177 204 1,800  Level Potomac TRACON
Mon 10:15:02 39.0167 -77.5500 333° Northwest 220 253 3,700 2,500 Climbing Potomac TRACON
Mon 10:16:00 39.1264 -77.1528 78° East  Level Estimated
Mon 10:16:02 39.0833 -77.5000 30° Northeast 269 310 6,800  Level Potomac TRACON
Mon 10:16:57 39.1333 -77.4500 38° Northeast 281 323 9,400 1,670 Climbing Potomac TRACON
Mon 10:17:00 39.1858 -77.0501 90° East  Level Estimated
Mon 10:17:57 39.1500 -77.3500 78° East 335 386 10,000  Level Potomac TRACON
Mon 10:18:00 39.2452 -76.9473 74° East  Level Estimated
Mon 10:18:57 39.1333 -77.2333 100° East 353 406 12,400  Level Potomac TRACON
Mon 10:19:00 39.2860 -76.8764 90° East  Level Estimated
Mon 10:21:04 39.0639 -76.9792 109° East 371 427 16,800  Level Washington Center
Mon 10:22:05 39.0736 -76.8403 85° East 376 433 18,600 1,884 Climbing Washington Center
Mon 10:23:05 39.0917 -76.7014 80° East 381 438 20,600 1,835 Climbing Washington Center
Mon 10:24:06 39.1033 -76.5464 84° East 394 453 22,300 1,190 Climbing Washington Center
Mon 10:25:06 39.1272 -76.4103 77° East 405 466 23,000 323 Climbing Washington Center
Mon 10:26:16 39.1469 -76.2633 80° East 410 472 23,000  Level Washington Center
Mon 10:27:17 39.1708 -76.0842 80° East 415 478 23,000 446 Level Washington Center
Mon 10:28:17 39.1858 -75.9369 82° East 415 478 23,900 1,240 Climbing Washington Center
Mon 10:29:18 39.2486 -75.8061 58° Northeast 406 467 25,500 1,210 Climbing Washington Center
Mon 10:30:16 39.3364 -75.6936 45° Northeast 413 475 26,300 1,119 Climbing Washington Center
Mon 10:31:16 39.4239 -75.5808 45° Northeast 425 489 27,700 1,289 Climbing Washington Center
Mon 10:32:17 39.5156 -75.4650 44° Northeast 445 512 28,900 1,289 Climbing Washington Center
Mon 10:33:17 39.6069 -75.3436 46° Northeast 456 525 30,300 1,041 Climbing Washington Center
Mon 10:34:18 39.6964 -75.2219 46° Northeast 461 531 31,000 296 Climbing Washington Center
Mon 10:35:39 39.8303 -75.0311 48° Northeast 478 550 31,000  Level New York Center
Mon 10:36:39 39.9181 -74.9064 47° Northeast 473 544 31,000  Level New York Center
Mon 10:37:39 40.0058 -74.7761 49° Northeast 473 544 31,000  Level New York Center
Mon 10:38:39 40.0956 -74.6483 47° Northeast 473 544 31,000  Level New York Center
Mon 10:39:40 40.1792 -74.5172 50° Northeast 473 544 31,000  Level New York Center
Mon 10:40:39 40.2600 -74.3964 49° Northeast 473 544 31,000  Level New York Center
Mon 10:41:39 40.3519 -74.2517 50° Northeast 473 544 31,000  Level New York Center
Mon 10:43:26 40.4842 -74.0392 51° Northeast 481 554 31,000  Level Boston Center
Mon 10:44:26 40.5683 -73.9075 50° Northeast 476 548 31,000  Level Boston Center
Mon 10:45:27 40.6525 -73.7728 51° Northeast 477 549 31,000 -793 Level Boston Center
Mon 10:46:27 40.7542 -73.6125 50° Northeast 476 548 29,400 -1,918 Descending Boston Center
Mon 10:47:29 40.8381 -73.4775 51° Northeast 476 548 27,100 -2,195 Descending Boston Center
Mon 10:48:30 40.9222 -73.3500 49° Northeast 464 534 24,900 -1,525 Descending Boston Center
Mon 10:49:31 40.9989 -73.2367 48° Northeast 442 509 24,000 -744 Descending Boston Center
Mon 10:50:31 41.0789 -73.1192 48° Northeast 432 497 23,400 -484 Descending Boston Center
Mon 10:51:35 41.1547 -73.0008 50° Northeast 426 490 23,000 -194 Descending Boston Center
Mon 10:52:35 41.2092 -72.8600 63° Northeast 428 493 23,000  Level Boston Center
Mon 10:53:36 41.2611 -72.7197 64° Northeast 427 491 23,000  Level Boston Center
Mon 10:54:36 41.3183 -72.5631 64° Northeast 428 493 23,000  Level Boston Center
Mon 10:55:37 41.3706 -72.4197 64° Northeast 430 495 23,000 -720 Level Boston Center
Mon 10:56:41 41.4222 -72.2753 64° Northeast 432 497 21,500 -1,680 Descending Boston Center
Mon 10:57:42 41.4728 -72.1375 64° Northeast 416 479 19,500 -2,033 Descending Boston Center
Mon 10:58:42 41.5278 -71.9847 64° Northeast 404 465 17,400 -2,083 Descending Boston Center
Mon 10:59:43 41.5786 -71.8431 64° Northeast 393 452 15,300 -1,934 Descending Boston Center
Mon 11:00:43 41.6236 -71.7156 65° Northeast 382 440 13,500 -1,785 Descending Boston Center
Mon 11:01:44 41.6681 -71.5911 64° Northeast 375 432 11,700 -1,230 Descending Boston Center
Mon 11:02:45 41.7111 -71.4667 65° Northeast 348 400 11,000 -341 Descending Boston Center
Mon 11:03:47 41.7689 -71.3831 47° Northeast 315 362 11,000  Level Boston Center
Mon 11:04:47 41.8319 -71.3017 44° Northeast 315 362 11,000 -683 Level Boston Center
Mon 11:05:50 41.9047 -71.2247 38° Northeast 312 359 9,600 -1,355 Descending Boston Center
Mon 11:06:51 41.9842 -71.1892 18° North 303 349 8,200 -1,041 Descending Boston Center
Mon 11:07:51 42.0564 -71.1547 19° North 279 321 7,500 -744 Descending Boston Center
Mon 11:08:52 42.1128 -71.1261 21° North 220 253 6,700 -1,240 Descending Boston Center
Mon 11:09:52 42.1661 -71.1022 18° North 190 219 5,000 -1,701 Descending Boston Center
Mon 11:10:59 42.2167 -71.0833 15° North 176 203 3,100 -1,370 Descending KA90
Mon 11:11:59 42.2667 -71.0500 26° Northeast 171 197 2,100 -900 Descending KA90
Mon 11:12:59 42.3000 -71.0333 20° North 147 169 1,300 -810 Descending KA90
Mon 11:14:05 42.3500 -71.0167 14° North 140 161 400 -818 Descending KA90

Login

Don't have an account? Register now (free) for customized features, flight alerts, and more!